sensor_id;sensor_type;location;lat;lon;timestamp;temperature;humidity
10875;DHT22;5490;52.200;8.786;2023-02-15T09:55:24;4.70;99.90
10875;DHT22;5490;52.200;8.786;2023-02-15T09:57:59;6.70;99.90
10875;DHT22;5490;52.200;8.786;2023-02-15T10:00:35;6.70;99.90
10875;DHT22;5490;52.200;8.786;2023-02-15T10:03:25;6.70;99.90
10875;DHT22;5490;52.200;8.786;2023-02-15T10:06:11;6.60;99.90
10875;DHT22;5490;52.200;8.786;2023-02-15T10:08:55;6.70;99.90
10875;DHT22;5490;52.200;8.786;2023-02-15T10:11:38;6.70;99.90
10875;DHT22;5490;52.200;8.786;2023-02-15T10:14:27;6.70;99.90
10875;DHT22;5490;52.200;8.786;2023-02-15T10:17:12;6.70;99.90
10875;DHT22;5490;52.200;8.786;2023-02-15T10:19:50;6.70;99.90
10875;DHT22;5490;52.200;8.786;2023-02-15T10:22:31;6.70;99.90
10875;DHT22;5490;52.200;8.786;2023-02-15T10:25:12;6.80;99.90
10875;DHT22;5490;52.200;8.786;2023-02-15T10:27:47;6.80;99.90
10875;DHT22;5490;52.200;8.786;2023-02-15T10:30:15;6.80;99.90
10875;DHT22;5490;52.200;8.786;2023-02-15T10:32:50;6.90;99.90
10875;DHT22;5490;52.200;8.786;2023-02-15T10:35:24;6.90;99.90
10875;DHT22;5490;52.200;8.786;2023-02-15T10:38:03;6.90;99.90
10875;DHT22;5490;52.200;8.786;2023-02-15T10:40:39;7.00;99.90
10875;DHT22;5490;52.200;8.786;2023-02-15T10:43:25;7.10;99.90
10875;DHT22;5490;52.200;8.786;2023-02-15T10:46:06;7.20;99.90
10875;DHT22;5490;52.200;8.786;2023-02-15T10:51:47;7.30;99.90
10875;DHT22;5490;52.200;8.786;2023-02-15T10:54:24;7.20;99.90
10875;DHT22;5490;52.200;8.786;2023-02-15T10:57:00;7.10;99.90
10875;DHT22;5490;52.200;8.786;2023-02-15T10:59:45;7.10;99.90
10875;DHT22;5490;52.200;8.786;2023-02-15T11:02:20;7.00;99.90
10875;DHT22;5490;52.200;8.786;2023-02-15T11:04:58;6.90;99.90
10875;DHT22;5490;52.200;8.786;2023-02-15T11:07:31;6.90;99.90
10875;DHT22;5490;52.200;8.786;2023-02-15T11:10:12;6.90;99.90
10875;DHT22;5490;52.200;8.786;2023-02-15T11:12:43;6.90;99.90
10875;DHT22;5490;52.200;8.786;2023-02-15T11:15:18;6.80;99.90
10875;DHT22;5490;52.200;8.786;2023-02-15T11:17:50;6.90;99.90
10875;DHT22;5490;52.200;8.786;2023-02-15T11:20:24;6.90;99.90
10875;DHT22;5490;52.200;8.786;2023-02-15T11:22:52;6.90;99.90
10875;DHT22;5490;52.200;8.786;2023-02-15T11:25:24;6.90;99.90
10875;DHT22;5490;52.200;8.786;2023-02-15T11:27:52;6.90;99.90
10875;DHT22;5490;52.200;8.786;2023-02-15T11:30:22;6.90;99.90
10875;DHT22;5490;52.200;8.786;2023-02-15T11:32:52;6.90;99.90
10875;DHT22;5490;52.200;8.786;2023-02-15T11:35:24;7.00;99.90
10875;DHT22;5490;52.200;8.786;2023-02-15T11:37:57;7.00;99.90
10875;DHT22;5490;52.200;8.786;2023-02-15T11:40:28;7.00;99.90
10875;DHT22;5490;52.200;8.786;2023-02-15T11:42:57;7.10;99.90
10875;DHT22;5490;52.200;8.786;2023-02-15T11:45:28;7.10;99.90
10875;DHT22;5490;52.200;8.786;2023-02-15T11:47:57;7.10;99.90
10875;DHT22;5490;52.200;8.786;2023-02-15T11:50:26;7.20;99.90
10875;DHT22;5490;52.200;8.786;2023-02-15T11:52:59;7.20;99.90
10875;DHT22;5490;52.200;8.786;2023-02-15T11:55:27;7.20;99.90
10875;DHT22;5490;52.200;8.786;2023-02-15T11:57:59;7.30;99.90
10875;DHT22;5490;52.200;8.786;2023-02-15T12:00:32;7.30;99.90
10875;DHT22;5490;52.200;8.786;2023-02-15T12:03:07;7.30;99.90
10875;DHT22;5490;52.200;8.786;2023-02-15T12:05:39;7.40;99.90
10875;DHT22;5490;52.200;8.786;2023-02-15T12:08:14;7.40;99.90
10875;DHT22;5490;52.200;8.786;2023-02-15T12:10:46;7.40;99.90
10875;DHT22;5490;52.200;8.786;2023-02-15T12:13:19;7.40;99.90
10875;DHT22;5490;52.200;8.786;2023-02-15T12:15:49;7.50;99.90
10875;DHT22;5490;52.200;8.786;2023-02-15T12:18:19;7.50;99.90
10875;DHT22;5490;52.200;8.786;2023-02-15T12:20:47;7.50;99.90
10875;DHT22;5490;52.200;8.786;2023-02-15T12:23:19;7.60;99.90
10875;DHT22;5490;52.200;8.786;2023-02-15T12:25:52;7.60;99.90
10875;DHT22;5490;52.200;8.786;2023-02-15T12:28:24;7.70;99.90
10875;DHT22;5490;52.200;8.786;2023-02-15T12:30:54;7.70;99.90
10875;DHT22;5490;52.200;8.786;2023-02-15T12:33:27;7.70;99.90
10875;DHT22;5490;52.200;8.786;2023-02-15T12:35:59;7.70;99.90
10875;DHT22;5490;52.200;8.786;2023-02-15T12:38:29;7.80;99.90
10875;DHT22;5490;52.200;8.786;2023-02-15T12:41:01;8.00;99.90
10875;DHT22;5490;52.200;8.786;2023-02-15T12:43:31;7.90;99.90
10875;DHT22;5490;52.200;8.786;2023-02-15T12:46:23;8.00;99.90
10875;DHT22;5490;52.200;8.786;2023-02-15T12:49:06;8.00;99.90
10875;DHT22;5490;52.200;8.786;2023-02-15T12:51:45;8.10;99.90
10875;DHT22;5490;52.200;8.786;2023-02-15T12:54:30;8.20;99.90
10875;DHT22;5490;52.200;8.786;2023-02-15T12:56:57;8.30;99.90
10875;DHT22;5490;52.200;8.786;2023-02-15T12:59:24;8.30;99.90
10875;DHT22;5490;52.200;8.786;2023-02-15T13:01:53;8.40;99.90
10875;DHT22;5490;52.200;8.786;2023-02-15T13:04:24;8.40;99.90
10875;DHT22;5490;52.200;8.786;2023-02-15T13:06:55;8.50;99.90
10875;DHT22;5490;52.200;8.786;2023-02-15T13:09:34;8.50;99.90
10875;DHT22;5490;52.200;8.786;2023-02-15T13:12:10;8.50;99.90
10875;DHT22;5490;52.200;8.786;2023-02-15T13:14:43;8.60;99.90
10875;DHT22;5490;52.200;8.786;2023-02-15T13:17:13;8.60;99.90
10875;DHT22;5490;52.200;8.786;2023-02-15T13:19:46;8.60;99.90
10875;DHT22;5490;52.200;8.786;2023-02-15T13:22:17;8.70;99.90
10875;DHT22;5490;52.200;8.786;2023-02-15T13:24:48;8.70;99.90
10875;DHT22;5490;52.200;8.786;2023-02-15T13:27:17;8.70;99.90
10875;DHT22;5490;52.200;8.786;2023-02-15T13:29:48;8.80;99.90
10875;DHT22;5490;52.200;8.786;2023-02-15T13:32:25;8.80;99.90
10875;DHT22;5490;52.200;8.786;2023-02-15T13:34:54;8.90;99.90
10875;DHT22;5490;52.200;8.786;2023-02-15T13:37:36;8.90;99.90
10875;DHT22;5490;52.200;8.786;2023-02-15T13:40:13;9.00;99.90
10875;DHT22;5490;52.200;8.786;2023-02-15T13:42:49;9.10;99.90
10875;DHT22;5490;52.200;8.786;2023-02-15T13:45:30;9.10;99.90
10875;DHT22;5490;52.200;8.786;2023-02-15T13:48:11;9.10;99.90
10875;DHT22;5490;52.200;8.786;2023-02-15T13:50:58;9.20;99.90
10875;DHT22;5490;52.200;8.786;2023-02-15T13:53:43;9.20;99.90
10875;DHT22;5490;52.200;8.786;2023-02-15T13:56:19;9.20;99.90
10875;DHT22;5490;52.200;8.786;2023-02-15T14:01:56;9.30;99.90
10875;DHT22;5490;52.200;8.786;2023-02-15T14:04:52;9.30;99.90
10875;DHT22;5490;52.200;8.786;2023-02-15T14:07:42;9.30;99.90
10875;DHT22;5490;52.200;8.786;2023-02-15T14:10:27;9.30;99.90
10875;DHT22;5490;52.200;8.786;2023-02-15T14:13:12;9.40;99.90
10875;DHT22;5490;52.200;8.786;2023-02-15T14:15:47;9.40;99.90
10875;DHT22;5490;52.200;8.786;2023-02-15T14:18:22;9.40;99.90
10875;DHT22;5490;52.200;8.786;2023-02-15T14:21:00;9.40;99.90
10875;DHT22;5490;52.200;8.786;2023-02-15T14:23:40;9.50;99.90
10875;DHT22;5490;52.200;8.786;2023-02-15T14:26:15;9.50;99.90
10875;DHT22;5490;52.200;8.786;2023-02-15T14:28:47;9.50;99.90
10875;DHT22;5490;52.200;8.786;2023-02-15T14:31:16;9.50;99.90
10875;DHT22;5490;52.200;8.786;2023-02-15T14:33:53;9.50;99.90
10875;DHT22;5490;52.200;8.786;2023-02-15T14:36:23;9.50;99.90
10875;DHT22;5490;52.200;8.786;2023-02-15T14:38:56;9.50;99.90
10875;DHT22;5490;52.200;8.786;2023-02-15T14:41:31;9.50;99.90
10875;DHT22;5490;52.200;8.786;2023-02-15T14:44:08;9.50;99.90
10875;DHT22;5490;52.200;8.786;2023-02-15T14:46:45;9.50;99.90
10875;DHT22;5490;52.200;8.786;2023-02-15T14:49:17;9.50;99.90
10875;DHT22;5490;52.200;8.786;2023-02-15T14:52:01;9.50;99.90
10875;DHT22;5490;52.200;8.786;2023-02-15T14:54:52;9.40;99.90
10875;DHT22;5490;52.200;8.786;2023-02-15T14:57:30;9.50;99.90
10875;DHT22;5490;52.200;8.786;2023-02-15T15:00:00;9.40;99.90
10875;DHT22;5490;52.200;8.786;2023-02-15T15:02:44;9.40;99.90
10875;DHT22;5490;52.200;8.786;2023-02-15T15:05:18;9.40;99.90
10875;DHT22;5490;52.200;8.786;2023-02-15T15:07:49;9.40;99.90
10875;DHT22;5490;52.200;8.786;2023-02-15T15:10:41;9.40;99.90
10875;DHT22;5490;52.200;8.786;2023-02-15T15:16:30;9.30;99.90
10875;DHT22;5490;52.200;8.786;2023-02-15T15:18:58;9.30;99.90
10875;DHT22;5490;52.200;8.786;2023-02-15T15:21:53;9.20;99.90
10875;DHT22;5490;52.200;8.786;2023-02-15T15:24:53;9.20;99.90
10875;DHT22;5490;52.200;8.786;2023-02-15T15:30:47;9.10;99.90
10875;DHT22;5490;52.200;8.786;2023-02-15T15:36:22;9.10;99.90
10875;DHT22;5490;52.200;8.786;2023-02-15T15:39:01;9.00;99.90
10875;DHT22;5490;52.200;8.786;2023-02-15T15:41:40;8.90;99.90
10875;DHT22;5490;52.200;8.786;2023-02-15T15:44:48;8.90;99.90
10875;DHT22;5490;52.200;8.786;2023-02-15T15:50:12;8.90;99.90
10875;DHT22;5490;52.200;8.786;2023-02-15T15:52:41;8.90;99.90
10875;DHT22;5490;52.200;8.786;2023-02-15T15:55:16;8.80;99.90
10875;DHT22;5490;52.200;8.786;2023-02-15T15:57:47;8.80;99.90
10875;DHT22;5490;52.200;8.786;2023-02-15T16:00:29;8.80;99.90
10875;DHT22;5490;52.200;8.786;2023-02-15T16:02:57;8.70;99.90
10875;DHT22;5490;52.200;8.786;2023-02-15T16:05:24;8.70;99.90
10875;DHT22;5490;52.200;8.786;2023-02-15T16:07:51;8.70;99.90
10875;DHT22;5490;52.200;8.786;2023-02-15T16:10:24;8.60;99.90
10875;DHT22;5490;52.200;8.786;2023-02-15T16:12:53;8.50;99.90
10875;DHT22;5490;52.200;8.786;2023-02-15T16:15:22;8.50;99.90
10875;DHT22;5490;52.200;8.786;2023-02-15T16:17:52;8.40;99.90
10875;DHT22;5490;52.200;8.786;2023-02-15T16:20:23;8.30;99.90
10875;DHT22;5490;52.200;8.786;2023-02-15T16:22:59;8.20;99.90
10875;DHT22;5490;52.200;8.786;2023-02-15T16:25:36;8.10;99.90
10875;DHT22;5490;52.200;8.786;2023-02-15T16:28:10;8.00;99.90
10875;DHT22;5490;52.200;8.786;2023-02-15T16:30:38;7.90;99.90
10875;DHT22;5490;52.200;8.786;2023-02-15T16:33:09;7.90;99.90
10875;DHT22;5490;52.200;8.786;2023-02-15T16:35:38;7.80;99.90
10875;DHT22;5490;52.200;8.786;2023-02-15T16:38:09;7.80;99.90
10875;DHT22;5490;52.200;8.786;2023-02-15T16:40:41;7.70;99.90
10875;DHT22;5490;52.200;8.786;2023-02-15T16:43:15;7.70;99.90
10875;DHT22;5490;52.200;8.786;2023-02-15T16:45:43;7.60;99.90
10875;DHT22;5490;52.200;8.786;2023-02-15T16:48:14;7.50;99.90
10875;DHT22;5490;52.200;8.786;2023-02-15T16:50:47;7.50;99.90
10875;DHT22;5490;52.200;8.786;2023-02-15T16:53:20;7.40;99.90
10875;DHT22;5490;52.200;8.786;2023-02-15T16:55:50;7.40;99.90
10875;DHT22;5490;52.200;8.786;2023-02-15T16:58:25;7.20;99.90
10875;DHT22;5490;52.200;8.786;2023-02-15T17:00:56;7.20;99.90
10875;DHT22;5490;52.200;8.786;2023-02-15T17:03:24;7.20;99.90
10875;DHT22;5490;52.200;8.786;2023-02-15T17:05:52;7.10;99.90
10875;DHT22;5490;52.200;8.786;2023-02-15T17:08:24;7.00;99.90
10875;DHT22;5490;52.200;8.786;2023-02-15T17:11:04;7.00;99.90
10875;DHT22;5490;52.200;8.786;2023-02-15T17:13:36;6.90;99.90
10875;DHT22;5490;52.200;8.786;2023-02-15T17:16:28;6.90;99.90
10875;DHT22;5490;52.200;8.786;2023-02-15T17:18:57;6.80;99.90
10875;DHT22;5490;52.200;8.786;2023-02-15T17:21:28;6.70;99.90
10875;DHT22;5490;52.200;8.786;2023-02-15T17:23:58;6.70;99.90
10875;DHT22;5490;52.200;8.786;2023-02-15T17:26:27;6.60;99.90
10875;DHT22;5490;52.200;8.786;2023-02-15T17:29:00;6.50;99.90
10875;DHT22;5490;52.200;8.786;2023-02-15T17:31:31;6.50;99.90
10875;DHT22;5490;52.200;8.786;2023-02-15T17:33:59;6.40;99.90
10875;DHT22;5490;52.200;8.786;2023-02-15T17:36:27;6.40;99.90
10875;DHT22;5490;52.200;8.786;2023-02-15T17:39:06;6.30;99.90
10875;DHT22;5490;52.200;8.786;2023-02-15T17:41:44;6.20;99.90
10875;DHT22;5490;52.200;8.786;2023-02-15T17:44:14;6.20;99.90
10875;DHT22;5490;52.200;8.786;2023-02-15T17:46:41;6.20;99.90
10875;DHT22;5490;52.200;8.786;2023-02-15T17:49:14;6.10;99.90
10875;DHT22;5490;52.200;8.786;2023-02-15T17:51:45;6.10;99.90
10875;DHT22;5490;52.200;8.786;2023-02-15T17:54:11;6.00;99.90
10875;DHT22;5490;52.200;8.786;2023-02-15T17:56:56;6.00;99.90
10875;DHT22;5490;52.200;8.786;2023-02-15T17:59:29;6.00;99.90
10875;DHT22;5490;52.200;8.786;2023-02-15T18:01:55;5.90;99.90
10875;DHT22;5490;52.200;8.786;2023-02-15T18:04:39;5.90;99.90
10875;DHT22;5490;52.200;8.786;2023-02-15T18:07:24;5.90;99.90
10875;DHT22;5490;52.200;8.786;2023-02-15T18:10:13;5.80;99.90
10875;DHT22;5490;52.200;8.786;2023-02-15T18:12:59;5.70;99.90
10875;DHT22;5490;52.200;8.786;2023-02-15T18:15:28;5.70;99.90
10875;DHT22;5490;52.200;8.786;2023-02-15T18:17:55;5.70;99.90
10875;DHT22;5490;52.200;8.786;2023-02-15T18:20:24;5.60;99.90
10875;DHT22;5490;52.200;8.786;2023-02-15T18:22:53;5.60;99.90
10875;DHT22;5490;52.200;8.786;2023-02-15T18:25:21;5.70;99.90
10875;DHT22;5490;52.200;8.786;2023-02-15T18:27:50;5.60;99.90
10875;DHT22;5490;52.200;8.786;2023-02-15T18:36:42;5.50;99.90
10875;DHT22;5490;52.200;8.786;2023-02-15T18:39:24;5.50;99.90
10875;DHT22;5490;52.200;8.786;2023-02-15T18:41:51;5.40;99.90
10875;DHT22;5490;52.200;8.786;2023-02-15T18:44:18;5.40;99.90
10875;DHT22;5490;52.200;8.786;2023-02-15T18:46:45;5.40;99.90
10875;DHT22;5490;52.200;8.786;2023-02-15T18:49:11;5.40;99.90
10875;DHT22;5490;52.200;8.786;2023-02-15T18:51:40;5.30;99.90
10875;DHT22;5490;52.200;8.786;2023-02-15T18:54:15;5.30;99.90
10875;DHT22;5490;52.200;8.786;2023-02-15T18:56:43;5.30;99.90
10875;DHT22;5490;52.200;8.786;2023-02-15T18:59:14;5.30;99.90
10875;DHT22;5490;52.200;8.786;2023-02-15T19:01:41;5.30;99.90
10875;DHT22;5490;52.200;8.786;2023-02-15T19:04:08;5.20;99.90
10875;DHT22;5490;52.200;8.786;2023-02-15T19:06:36;5.20;99.90
10875;DHT22;5490;52.200;8.786;2023-02-15T19:09:08;5.20;99.90
10875;DHT22;5490;52.200;8.786;2023-02-15T19:11:37;5.20;99.90
10875;DHT22;5490;52.200;8.786;2023-02-15T19:14:14;5.10;99.90
10875;DHT22;5490;52.200;8.786;2023-02-15T19:16:45;5.10;99.90
10875;DHT22;5490;52.200;8.786;2023-02-15T19:19:14;5.10;99.90
10875;DHT22;5490;52.200;8.786;2023-02-15T19:21:41;5.00;99.90
10875;DHT22;5490;52.200;8.786;2023-02-15T19:24:13;5.00;99.90
10875;DHT22;5490;52.200;8.786;2023-02-15T19:26:41;5.00;99.90
10875;DHT22;5490;52.200;8.786;2023-02-15T19:29:13;4.90;99.90
10875;DHT22;5490;52.200;8.786;2023-02-15T19:31:40;4.90;99.90
10875;DHT22;5490;52.200;8.786;2023-02-15T19:34:17;4.90;99.90
10875;DHT22;5490;52.200;8.786;2023-02-15T19:36:45;4.90;99.90
10875;DHT22;5490;52.200;8.786;2023-02-15T19:39:23;4.80;99.90
10875;DHT22;5490;52.200;8.786;2023-02-15T19:41:51;4.80;99.90
10875;DHT22;5490;52.200;8.786;2023-02-15T19:44:18;4.80;99.90
10875;DHT22;5490;52.200;8.786;2023-02-15T19:46:47;4.80;99.90
10875;DHT22;5490;52.200;8.786;2023-02-15T19:49:14;4.70;99.90
10875;DHT22;5490;52.200;8.786;2023-02-15T19:51:41;4.70;99.90
10875;DHT22;5490;52.200;8.786;2023-02-15T19:54:29;4.70;99.90
10875;DHT22;5490;52.200;8.786;2023-02-15T19:56:57;4.70;99.90
10875;DHT22;5490;52.200;8.786;2023-02-15T19:59:26;4.60;99.90
10875;DHT22;5490;52.200;8.786;2023-02-15T20:01:55;4.60;99.90
10875;DHT22;5490;52.200;8.786;2023-02-15T20:04:22;4.60;99.90
10875;DHT22;5490;52.200;8.786;2023-02-15T20:06:50;4.60;99.90
10875;DHT22;5490;52.200;8.786;2023-02-15T20:09:19;4.60;99.90
10875;DHT22;5490;52.200;8.786;2023-02-15T20:11:49;4.50;99.90
10875;DHT22;5490;52.200;8.786;2023-02-15T20:14:18;4.50;99.90
10875;DHT22;5490;52.200;8.786;2023-02-15T20:16:45;4.50;99.90
10875;DHT22;5490;52.200;8.786;2023-02-15T20:19:13;4.50;99.90
10875;DHT22;5490;52.200;8.786;2023-02-15T20:21:41;4.40;99.90
10875;DHT22;5490;52.200;8.786;2023-02-15T20:24:13;4.50;99.90
10875;DHT22;5490;52.200;8.786;2023-02-15T20:26:40;4.40;99.90
10875;DHT22;5490;52.200;8.786;2023-02-15T20:29:11;4.40;99.90
10875;DHT22;5490;52.200;8.786;2023-02-15T20:31:38;4.40;99.90
10875;DHT22;5490;52.200;8.786;2023-02-15T20:34:05;4.40;99.90
10875;DHT22;5490;52.200;8.786;2023-02-15T20:36:33;4.40;99.90
10875;DHT22;5490;52.200;8.786;2023-02-15T20:39:03;4.40;99.90
10875;DHT22;5490;52.200;8.786;2023-02-15T20:41:31;4.50;99.90
10875;DHT22;5490;52.200;8.786;2023-02-15T20:44:01;4.40;99.90
10875;DHT22;5490;52.200;8.786;2023-02-15T20:46:35;4.40;99.90
10875;DHT22;5490;52.200;8.786;2023-02-15T20:49:02;4.40;99.90
10875;DHT22;5490;52.200;8.786;2023-02-15T20:51:29;4.40;99.90
10875;DHT22;5490;52.200;8.786;2023-02-15T20:53:55;4.40;99.90
10875;DHT22;5490;52.200;8.786;2023-02-15T20:56:24;4.40;99.90
10875;DHT22;5490;52.200;8.786;2023-02-15T20:58:51;4.40;99.90
10875;DHT22;5490;52.200;8.786;2023-02-15T21:01:19;4.40;99.90
10875;DHT22;5490;52.200;8.786;2023-02-15T21:03:47;4.40;99.90
10875;DHT22;5490;52.200;8.786;2023-02-15T21:06:15;4.40;99.90
10875;DHT22;5490;52.200;8.786;2023-02-15T21:08:42;4.40;99.90
10875;DHT22;5490;52.200;8.786;2023-02-15T21:11:15;4.40;99.90
10875;DHT22;5490;52.200;8.786;2023-02-15T21:13:43;4.40;99.90
10875;DHT22;5490;52.200;8.786;2023-02-15T21:16:10;4.40;99.90
10875;DHT22;5490;52.200;8.786;2023-02-15T21:18:37;4.40;99.90
10875;DHT22;5490;52.200;8.786;2023-02-15T21:21:13;4.40;99.90
10875;DHT22;5490;52.200;8.786;2023-02-15T21:23:42;4.40;99.90
10875;DHT22;5490;52.200;8.786;2023-02-15T21:26:13;4.40;99.90
10875;DHT22;5490;52.200;8.786;2023-02-15T21:28:41;4.40;99.90
10875;DHT22;5490;52.200;8.786;2023-02-15T21:31:14;4.40;99.90
10875;DHT22;5490;52.200;8.786;2023-02-15T21:33:41;4.30;99.90
10875;DHT22;5490;52.200;8.786;2023-02-15T21:36:14;4.30;99.90
10875;DHT22;5490;52.200;8.786;2023-02-15T21:38:41;4.30;99.90
10875;DHT22;5490;52.200;8.786;2023-02-15T21:41:13;4.30;99.90
10875;DHT22;5490;52.200;8.786;2023-02-15T21:43:58;4.30;99.90
10875;DHT22;5490;52.200;8.786;2023-02-15T21:46:42;4.30;99.90
10875;DHT22;5490;52.200;8.786;2023-02-15T21:49:26;4.30;99.90
10875;DHT22;5490;52.200;8.786;2023-02-15T21:51:55;4.30;99.90
10875;DHT22;5490;52.200;8.786;2023-02-15T21:54:36;4.30;99.90
10875;DHT22;5490;52.200;8.786;2023-02-15T21:57:03;4.30;99.90
10875;DHT22;5490;52.200;8.786;2023-02-15T21:59:30;4.20;99.90
10875;DHT22;5490;52.200;8.786;2023-02-15T22:01:56;4.20;99.90
10875;DHT22;5490;52.200;8.786;2023-02-15T22:04:25;4.20;99.90
10875;DHT22;5490;52.200;8.786;2023-02-15T22:06:52;4.20;99.90
10875;DHT22;5490;52.200;8.786;2023-02-15T22:09:22;4.10;99.90
10875;DHT22;5490;52.200;8.786;2023-02-15T22:11:49;4.10;99.90
10875;DHT22;5490;52.200;8.786;2023-02-15T22:14:33;4.10;99.90
10875;DHT22;5490;52.200;8.786;2023-02-15T22:17:01;4.10;99.90
10875;DHT22;5490;52.200;8.786;2023-02-15T22:19:29;4.10;99.90
10875;DHT22;5490;52.200;8.786;2023-02-15T22:21:55;4.00;99.90
10875;DHT22;5490;52.200;8.786;2023-02-15T22:24:23;4.00;99.90
10875;DHT22;5490;52.200;8.786;2023-02-15T22:26:51;4.00;99.90
10875;DHT22;5490;52.200;8.786;2023-02-15T22:29:18;4.00;99.90
10875;DHT22;5490;52.200;8.786;2023-02-15T22:31:45;4.00;99.90
10875;DHT22;5490;52.200;8.786;2023-02-15T22:34:23;3.90;99.90
10875;DHT22;5490;52.200;8.786;2023-02-15T22:36:51;3.90;99.90
10875;DHT22;5490;52.200;8.786;2023-02-15T22:39:18;3.90;99.90
10875;DHT22;5490;52.200;8.786;2023-02-15T22:41:48;3.80;99.90
10875;DHT22;5490;52.200;8.786;2023-02-15T22:44:18;3.80;99.90
10875;DHT22;5490;52.200;8.786;2023-02-15T22:46:47;3.80;99.90
10875;DHT22;5490;52.200;8.786;2023-02-15T22:49:14;3.80;99.90
10875;DHT22;5490;52.200;8.786;2023-02-15T22:51:41;3.70;99.90
10875;DHT22;5490;52.200;8.786;2023-02-15T22:54:09;3.70;99.90
10875;DHT22;5490;52.200;8.786;2023-02-15T22:56:38;3.70;99.90
10875;DHT22;5490;52.200;8.786;2023-02-15T22:59:13;3.70;99.90
10875;DHT22;5490;52.200;8.786;2023-02-15T23:01:41;3.70;99.90
10875;DHT22;5490;52.200;8.786;2023-02-15T23:04:13;3.70;99.90
10875;DHT22;5490;52.200;8.786;2023-02-15T23:06:41;3.70;99.90
10875;DHT22;5490;52.200;8.786;2023-02-15T23:09:08;3.60;99.90
10875;DHT22;5490;52.200;8.786;2023-02-15T23:11:35;3.60;99.90
10875;DHT22;5490;52.200;8.786;2023-02-15T23:14:01;3.60;99.90
10875;DHT22;5490;52.200;8.786;2023-02-15T23:16:30;3.60;99.90
10875;DHT22;5490;52.200;8.786;2023-02-15T23:18:57;3.60;99.90
10875;DHT22;5490;52.200;8.786;2023-02-15T23:21:25;3.60;99.90
10875;DHT22;5490;52.200;8.786;2023-02-15T23:23:53;3.60;99.90
10875;DHT22;5490;52.200;8.786;2023-02-15T23:26:23;3.50;99.90
10875;DHT22;5490;52.200;8.786;2023-02-15T23:28:52;3.50;99.90
10875;DHT22;5490;52.200;8.786;2023-02-15T23:31:26;3.50;99.90
10875;DHT22;5490;52.200;8.786;2023-02-15T23:33:55;3.50;99.90
10875;DHT22;5490;52.200;8.786;2023-02-15T23:36:27;3.40;99.90
10875;DHT22;5490;52.200;8.786;2023-02-15T23:38:55;3.40;99.90
10875;DHT22;5490;52.200;8.786;2023-02-15T23:41:25;3.40;99.90
10875;DHT22;5490;52.200;8.786;2023-02-15T23:43:55;3.40;99.90
10875;DHT22;5490;52.200;8.786;2023-02-15T23:46:25;3.40;99.90
10875;DHT22;5490;52.200;8.786;2023-02-15T23:48:55;3.40;99.90
10875;DHT22;5490;52.200;8.786;2023-02-15T23:51:28;3.30;99.90
10875;DHT22;5490;52.200;8.786;2023-02-15T23:53:55;3.30;99.90
10875;DHT22;5490;52.200;8.786;2023-02-15T23:56:22;3.30;99.90
10875;DHT22;5490;52.200;8.786;2023-02-15T23:58:49;3.30;99.90
